Main page
METAR-TAF:

METAR-TAF

Airports :

Shahid Sadooghi Airport

Yazd, Iran

latitude: 31-54N, longitude: 054-24E, elevation: 1238 m

Current weather observation

The report was made 38 minutes ago, at 19:00 UTC
Wind 4 kt from the West/Southwest
Temperature 31°C
Humidity 9%
Pressure 1009 hPa
Visibility 10 km or more
no clouds below 1500 m and no cumulonimbus

METAR: OIYY 251900Z 25004KT CAVOK 31/M05 Q1009

Time: 00:08 (19:38 UTC)

Forecast

The report was made 2 hours and 8 minutes ago, at 17:30 UTC
Forecast valid from 25 at 18 UTC to 26 at 03 UTC
Wind 8 kt from the West/Northwest
Visibility: 7000 m
Temporary
from 25 at 18 UTC to 25 at 21 UTC
Wind 18 kt from the West

TAF: OIYY 251730Z 2518/2603 30008KT 7000 NSC TEMPO 2518/2521 27018KT

Weather observations and forecasts of more than 4000 airports (METAR and TAF reports).

The available stations are represented by yellow and red dots on the map.

Hover mouse over dot to see the name of the station.

Then click to see weather observations and forecasts.

To change the map : click on the green buttons with a black cross to zoom in, on the green button with a dash to zoom out, or on the green arrows for adjacent maps.


METAR-TAF: